sensor_id;sensor_type;location;lat;lon;timestamp;P1;durP1;ratioP1;P2;durP2;ratioP2
21705;SDS011;11014;53.076;18.208;2022-12-18T00:01:35;50.00;;;19.02;;
21705;SDS011;11014;53.076;18.208;2022-12-18T00:04:04;52.30;;;21.80;;
21705;SDS011;11014;53.076;18.208;2022-12-18T00:06:35;54.20;;;23.45;;
21705;SDS011;11014;53.076;18.208;2022-12-18T00:12:07;45.78;;;18.42;;
21705;SDS011;11014;53.076;18.208;2022-12-18T00:14:44;52.78;;;20.65;;
21705;SDS011;11014;53.076;18.208;2022-12-18T00:17:13;46.75;;;16.23;;
21705;SDS011;11014;53.076;18.208;2022-12-18T00:19:41;44.97;;;19.20;;
21705;SDS011;11014;53.076;18.208;2022-12-18T00:22:10;59.78;;;25.13;;
21705;SDS011;11014;53.076;18.208;2022-12-18T00:24:39;64.25;;;25.30;;
21705;SDS011;11014;53.076;18.208;2022-12-18T00:27:08;62.35;;;25.65;;
21705;SDS011;11014;53.076;18.208;2022-12-18T00:29:36;54.47;;;21.13;;
21705;SDS011;11014;53.076;18.208;2022-12-18T00:32:08;63.58;;;25.52;;
21705;SDS011;11014;53.076;18.208;2022-12-18T00:34:39;64.63;;;23.48;;
21705;SDS011;11014;53.076;18.208;2022-12-18T00:37:09;62.22;;;24.35;;
21705;SDS011;11014;53.076;18.208;2022-12-18T00:39:43;56.03;;;19.52;;
21705;SDS011;11014;53.076;18.208;2022-12-18T00:42:13;57.50;;;23.08;;
21705;SDS011;11014;53.076;18.208;2022-12-18T00:45:00;66.07;;;23.95;;
21705;SDS011;11014;53.076;18.208;2022-12-18T00:47:29;55.75;;;22.13;;
21705;SDS011;11014;53.076;18.208;2022-12-18T00:49:57;61.83;;;22.05;;
21705;SDS011;11014;53.076;18.208;2022-12-18T00:52:26;27.65;;;10.13;;
21705;SDS011;11014;53.076;18.208;2022-12-18T00:54:54;57.33;;;23.20;;
21705;SDS011;11014;53.076;18.208;2022-12-18T00:57:23;61.35;;;23.60;;
21705;SDS011;11014;53.076;18.208;2022-12-18T00:59:54;37.80;;;14.07;;
21705;SDS011;11014;53.076;18.208;2022-12-18T01:02:23;57.88;;;21.17;;
21705;SDS011;11014;53.076;18.208;2022-12-18T01:04:52;53.97;;;21.33;;
21705;SDS011;11014;53.076;18.208;2022-12-18T01:07:20;59.75;;;22.73;;
21705;SDS011;11014;53.076;18.208;2022-12-18T01:09:49;57.33;;;22.70;;
21705;SDS011;11014;53.076;18.208;2022-12-18T01:12:20;57.17;;;22.40;;
21705;SDS011;11014;53.076;18.208;2022-12-18T01:14:50;52.47;;;19.05;;
21705;SDS011;11014;53.076;18.208;2022-12-18T01:17:21;53.75;;;21.70;;
21705;SDS011;11014;53.076;18.208;2022-12-18T01:19:49;46.45;;;17.08;;
21705;SDS011;11014;53.076;18.208;2022-12-18T01:24:50;51.97;;;19.88;;
21705;SDS011;11014;53.076;18.208;2022-12-18T01:27:19;55.38;;;21.25;;
21705;SDS011;11014;53.076;18.208;2022-12-18T01:29:47;46.78;;;16.98;;
21705;SDS011;11014;53.076;18.208;2022-12-18T01:32:20;51.47;;;19.20;;
21705;SDS011;11014;53.076;18.208;2022-12-18T01:34:50;44.58;;;15.77;;
21705;SDS011;11014;53.076;18.208;2022-12-18T01:37:19;49.35;;;20.40;;
21705;SDS011;11014;53.076;18.208;2022-12-18T01:39:49;44.30;;;17.00;;
21705;SDS011;11014;53.076;18.208;2022-12-18T01:42:20;53.23;;;20.30;;
21705;SDS011;11014;53.076;18.208;2022-12-18T01:49:57;35.10;;;14.93;;
21705;SDS011;11014;53.076;18.208;2022-12-18T01:52:29;45.33;;;17.25;;
21705;SDS011;11014;53.076;18.208;2022-12-18T01:55:01;50.40;;;19.83;;
21705;SDS011;11014;53.076;18.208;2022-12-18T01:57:33;44.45;;;16.40;;
21705;SDS011;11014;53.076;18.208;2022-12-18T02:00:13;30.52;;;11.85;;
21705;SDS011;11014;53.076;18.208;2022-12-18T02:02:45;51.33;;;20.02;;
21705;SDS011;11014;53.076;18.208;2022-12-18T02:05:36;44.47;;;17.63;;
21705;SDS011;11014;53.076;18.208;2022-12-18T02:08:21;47.28;;;18.55;;
21705;SDS011;11014;53.076;18.208;2022-12-18T02:11:47;40.28;;;15.55;;
21705;SDS011;11014;53.076;18.208;2022-12-18T02:19:55;34.85;;;13.10;;
21705;SDS011;11014;53.076;18.208;2022-12-18T02:22:44;39.65;;;14.43;;
21705;SDS011;11014;53.076;18.208;2022-12-18T02:25:40;49.13;;;19.63;;
21705;SDS011;11014;53.076;18.208;2022-12-18T02:28:34;39.53;;;15.75;;
21705;SDS011;11014;53.076;18.208;2022-12-18T02:31:11;41.70;;;17.08;;
21705;SDS011;11014;53.076;18.208;2022-12-18T02:33:44;49.60;;;19.67;;
21705;SDS011;11014;53.076;18.208;2022-12-18T02:36:14;38.67;;;13.02;;
21705;SDS011;11014;53.076;18.208;2022-12-18T02:38:45;32.63;;;13.10;;
21705;SDS011;11014;53.076;18.208;2022-12-18T02:41:16;24.27;;;10.03;;
21705;SDS011;11014;53.076;18.208;2022-12-18T02:43:46;44.55;;;18.45;;
21705;SDS011;11014;53.076;18.208;2022-12-18T02:46:33;34.10;;;12.93;;
21705;SDS011;11014;53.076;18.208;2022-12-18T02:51:47;27.33;;;12.57;;
21705;SDS011;11014;53.076;18.208;2022-12-18T02:54:26;28.58;;;12.80;;
21705;SDS011;11014;53.076;18.208;2022-12-18T02:57:01;30.05;;;13.50;;
21705;SDS011;11014;53.076;18.208;2022-12-18T02:59:54;36.67;;;15.77;;
21705;SDS011;11014;53.076;18.208;2022-12-18T03:02:31;35.95;;;14.70;;
21705;SDS011;11014;53.076;18.208;2022-12-18T03:05:12;36.78;;;17.55;;
21705;SDS011;11014;53.076;18.208;2022-12-18T03:08:29;34.00;;;14.52;;
21705;SDS011;11014;53.076;18.208;2022-12-18T03:10:47;40.35;;;15.48;;
21705;SDS011;11014;53.076;18.208;2022-12-18T03:13:25;37.33;;;14.75;;
21705;SDS011;11014;53.076;18.208;2022-12-18T03:16:00;37.65;;;16.30;;
21705;SDS011;11014;53.076;18.208;2022-12-18T03:21:07;33.83;;;14.07;;
21705;SDS011;11014;53.076;18.208;2022-12-18T03:23:40;38.60;;;16.90;;
21705;SDS011;11014;53.076;18.208;2022-12-18T03:26:15;33.40;;;15.23;;
21705;SDS011;11014;53.076;18.208;2022-12-18T03:28:56;39.17;;;16.38;;
21705;SDS011;11014;53.076;18.208;2022-12-18T03:31:29;31.80;;;14.20;;
21705;SDS011;11014;53.076;18.208;2022-12-18T03:34:04;35.38;;;13.10;;
21705;SDS011;11014;53.076;18.208;2022-12-18T03:36:44;33.22;;;13.73;;
21705;SDS011;11014;53.076;18.208;2022-12-18T03:39:14;35.53;;;14.68;;
21705;SDS011;11014;53.076;18.208;2022-12-18T03:41:51;35.38;;;16.33;;
21705;SDS011;11014;53.076;18.208;2022-12-18T03:50:46;44.38;;;17.95;;
21705;SDS011;11014;53.076;18.208;2022-12-18T03:56:02;36.67;;;16.33;;
21705;SDS011;11014;53.076;18.208;2022-12-18T03:58:37;35.25;;;15.80;;
21705;SDS011;11014;53.076;18.208;2022-12-18T04:01:23;37.08;;;14.02;;
21705;SDS011;11014;53.076;18.208;2022-12-18T04:03:58;32.47;;;12.75;;
21705;SDS011;11014;53.076;18.208;2022-12-18T04:06:34;39.47;;;15.80;;
21705;SDS011;11014;53.076;18.208;2022-12-18T04:09:05;43.90;;;18.23;;
21705;SDS011;11014;53.076;18.208;2022-12-18T04:11:39;35.47;;;15.25;;
21705;SDS011;11014;53.076;18.208;2022-12-18T04:14:14;31.20;;;13.73;;
21705;SDS011;11014;53.076;18.208;2022-12-18T04:16:49;41.67;;;17.65;;
21705;SDS011;11014;53.076;18.208;2022-12-18T04:19:21;42.13;;;19.00;;
21705;SDS011;11014;53.076;18.208;2022-12-18T04:21:52;34.65;;;15.60;;
21705;SDS011;11014;53.076;18.208;2022-12-18T04:24:20;41.58;;;18.58;;
21705;SDS011;11014;53.076;18.208;2022-12-18T04:27:01;43.60;;;18.70;;
21705;SDS011;11014;53.076;18.208;2022-12-18T04:29:34;40.22;;;16.80;;
21705;SDS011;11014;53.076;18.208;2022-12-18T04:32:03;48.28;;;19.02;;
21705;SDS011;11014;53.076;18.208;2022-12-18T04:34:32;50.97;;;20.98;;
21705;SDS011;11014;53.076;18.208;2022-12-18T04:37:01;48.92;;;20.15;;
21705;SDS011;11014;53.076;18.208;2022-12-18T04:39:30;48.25;;;19.85;;
21705;SDS011;11014;53.076;18.208;2022-12-18T04:42:05;51.20;;;19.38;;
21705;SDS011;11014;53.076;18.208;2022-12-18T04:44:34;50.05;;;18.75;;
21705;SDS011;11014;53.076;18.208;2022-12-18T04:47:04;52.38;;;20.50;;
21705;SDS011;11014;53.076;18.208;2022-12-18T04:49:32;50.85;;;20.67;;
21705;SDS011;11014;53.076;18.208;2022-12-18T04:52:01;48.90;;;21.10;;
21705;SDS011;11014;53.076;18.208;2022-12-18T04:54:29;53.03;;;20.33;;
21705;SDS011;11014;53.076;18.208;2022-12-18T04:56:58;46.35;;;19.70;;
21705;SDS011;11014;53.076;18.208;2022-12-18T04:59:26;42.40;;;18.35;;
21705;SDS011;11014;53.076;18.208;2022-12-18T05:01:55;40.45;;;18.13;;
21705;SDS011;11014;53.076;18.208;2022-12-18T05:04:24;46.35;;;18.45;;
21705;SDS011;11014;53.076;18.208;2022-12-18T05:06:52;46.75;;;19.00;;
21705;SDS011;11014;53.076;18.208;2022-12-18T05:09:22;44.75;;;17.30;;
21705;SDS011;11014;53.076;18.208;2022-12-18T05:11:51;48.03;;;19.02;;
21705;SDS011;11014;53.076;18.208;2022-12-18T05:14:19;49.15;;;18.45;;
21705;SDS011;11014;53.076;18.208;2022-12-18T05:16:48;44.95;;;17.88;;
21705;SDS011;11014;53.076;18.208;2022-12-18T05:19:16;45.00;;;19.02;;
21705;SDS011;11014;53.076;18.208;2022-12-18T05:21:46;42.08;;;16.38;;
21705;SDS011;11014;53.076;18.208;2022-12-18T05:24:22;43.92;;;17.50;;
21705;SDS011;11014;53.076;18.208;2022-12-18T05:26:50;47.95;;;17.90;;
21705;SDS011;11014;53.076;18.208;2022-12-18T05:29:18;45.00;;;18.95;;
21705;SDS011;11014;53.076;18.208;2022-12-18T05:31:47;44.33;;;18.05;;
21705;SDS011;11014;53.076;18.208;2022-12-18T05:34:16;47.17;;;19.42;;
21705;SDS011;11014;53.076;18.208;2022-12-18T05:36:45;46.83;;;17.77;;
21705;SDS011;11014;53.076;18.208;2022-12-18T05:39:13;49.95;;;18.70;;
21705;SDS011;11014;53.076;18.208;2022-12-18T05:41:42;42.75;;;19.10;;
21705;SDS011;11014;53.076;18.208;2022-12-18T05:44:11;49.45;;;19.90;;
21705;SDS011;11014;53.076;18.208;2022-12-18T05:46:39;46.00;;;17.80;;
21705;SDS011;11014;53.076;18.208;2022-12-18T05:49:09;38.58;;;16.70;;
21705;SDS011;11014;53.076;18.208;2022-12-18T05:51:38;49.65;;;19.42;;
21705;SDS011;11014;53.076;18.208;2022-12-18T05:54:08;45.17;;;16.98;;
21705;SDS011;11014;53.076;18.208;2022-12-18T05:56:37;42.13;;;16.40;;
21705;SDS011;11014;53.076;18.208;2022-12-18T05:59:07;44.35;;;19.02;;
21705;SDS011;11014;53.076;18.208;2022-12-18T06:01:36;44.83;;;18.30;;
21705;SDS011;11014;53.076;18.208;2022-12-18T06:04:06;44.22;;;17.70;;
21705;SDS011;11014;53.076;18.208;2022-12-18T06:06:35;42.17;;;15.73;;
21705;SDS011;11014;53.076;18.208;2022-12-18T06:09:05;44.55;;;16.63;;
21705;SDS011;11014;53.076;18.208;2022-12-18T06:11:38;46.85;;;17.67;;
21705;SDS011;11014;53.076;18.208;2022-12-18T06:14:06;47.15;;;17.67;;
21705;SDS011;11014;53.076;18.208;2022-12-18T06:16:35;41.72;;;18.05;;
21705;SDS011;11014;53.076;18.208;2022-12-18T06:19:05;39.55;;;15.88;;
21705;SDS011;11014;53.076;18.208;2022-12-18T06:21:34;44.13;;;17.02;;
21705;SDS011;11014;53.076;18.208;2022-12-18T06:24:03;46.63;;;20.10;;
21705;SDS011;11014;53.076;18.208;2022-12-18T06:26:31;44.83;;;18.25;;
21705;SDS011;11014;53.076;18.208;2022-12-18T06:29:00;45.97;;;17.98;;
21705;SDS011;11014;53.076;18.208;2022-12-18T06:31:29;44.75;;;15.82;;
21705;SDS011;11014;53.076;18.208;2022-12-18T06:33:57;49.70;;;18.13;;
21705;SDS011;11014;53.076;18.208;2022-12-18T06:36:26;41.25;;;17.00;;
21705;SDS011;11014;53.076;18.208;2022-12-18T06:38:57;42.77;;;18.33;;
21705;SDS011;11014;53.076;18.208;2022-12-18T06:41:27;43.25;;;15.60;;
21705;SDS011;11014;53.076;18.208;2022-12-18T06:43:55;48.85;;;18.00;;
21705;SDS011;11014;53.076;18.208;2022-12-18T06:46:27;43.55;;;16.88;;
21705;SDS011;11014;53.076;18.208;2022-12-18T06:48:55;42.97;;;16.08;;
21705;SDS011;11014;53.076;18.208;2022-12-18T06:51:25;45.83;;;18.55;;
21705;SDS011;11014;53.076;18.208;2022-12-18T06:53:53;46.28;;;17.90;;
21705;SDS011;11014;53.076;18.208;2022-12-18T06:56:23;54.00;;;18.65;;
21705;SDS011;11014;53.076;18.208;2022-12-18T06:58:51;50.20;;;17.15;;
21705;SDS011;11014;53.076;18.208;2022-12-18T07:01:20;45.45;;;17.65;;
21705;SDS011;11014;53.076;18.208;2022-12-18T07:03:53;51.17;;;18.60;;
21705;SDS011;11014;53.076;18.208;2022-12-18T07:06:23;54.63;;;19.40;;
21705;SDS011;11014;53.076;18.208;2022-12-18T07:08:53;47.92;;;18.30;;
21705;SDS011;11014;53.076;18.208;2022-12-18T07:11:22;47.67;;;16.55;;
21705;SDS011;11014;53.076;18.208;2022-12-18T07:13:51;45.80;;;17.85;;
21705;SDS011;11014;53.076;18.208;2022-12-18T07:16:26;47.42;;;17.40;;
21705;SDS011;11014;53.076;18.208;2022-12-18T07:19:03;43.72;;;16.08;;
21705;SDS011;11014;53.076;18.208;2022-12-18T07:21:32;53.58;;;19.33;;
21705;SDS011;11014;53.076;18.208;2022-12-18T07:24:00;44.58;;;15.50;;
21705;SDS011;11014;53.076;18.208;2022-12-18T07:26:29;47.97;;;16.90;;
21705;SDS011;11014;53.076;18.208;2022-12-18T07:28:57;63.55;;;22.60;;
21705;SDS011;11014;53.076;18.208;2022-12-18T07:31:26;51.53;;;20.00;;
21705;SDS011;11014;53.076;18.208;2022-12-18T07:33:56;57.08;;;19.23;;
21705;SDS011;11014;53.076;18.208;2022-12-18T07:36:24;49.88;;;19.70;;
21705;SDS011;11014;53.076;18.208;2022-12-18T07:42:25;44.28;;;15.50;;
21705;SDS011;11014;53.076;18.208;2022-12-18T07:46:17;22.63;;;9.48;;
21705;SDS011;11014;53.076;18.208;2022-12-18T07:51:50;47.92;;;17.38;;
21705;SDS011;11014;53.076;18.208;2022-12-18T07:55:18;42.90;;;16.65;;
21705;SDS011;11014;53.076;18.208;2022-12-18T07:58:35;39.10;;;15.45;;
21705;SDS011;11014;53.076;18.208;2022-12-18T08:02:10;51.72;;;16.77;;
21705;SDS011;11014;53.076;18.208;2022-12-18T08:04:46;35.65;;;13.93;;
21705;SDS011;11014;53.076;18.208;2022-12-18T08:07:37;44.60;;;15.73;;
21705;SDS011;11014;53.076;18.208;2022-12-18T08:10:29;41.17;;;14.10;;
21705;SDS011;11014;53.076;18.208;2022-12-18T08:13:47;54.03;;;18.45;;
21705;SDS011;11014;53.076;18.208;2022-12-18T08:16:35;50.25;;;15.85;;
21705;SDS011;11014;53.076;18.208;2022-12-18T08:19:20;45.08;;;17.80;;
21705;SDS011;11014;53.076;18.208;2022-12-18T08:22:02;45.53;;;15.50;;
21705;SDS011;11014;53.076;18.208;2022-12-18T08:24:45;40.88;;;14.35;;
21705;SDS011;11014;53.076;18.208;2022-12-18T08:27:22;39.43;;;13.40;;
21705;SDS011;11014;53.076;18.208;2022-12-18T08:32:51;45.13;;;16.75;;
21705;SDS011;11014;53.076;18.208;2022-12-18T08:36:04;32.72;;;11.02;;
21705;SDS011;11014;53.076;18.208;2022-12-18T08:38:51;48.55;;;19.40;;
21705;SDS011;11014;53.076;18.208;2022-12-18T08:42:07;46.30;;;18.60;;
21705;SDS011;11014;53.076;18.208;2022-12-18T08:46:22;36.70;;;14.85;;
21705;SDS011;11014;53.076;18.208;2022-12-18T08:57:46;42.65;;;16.40;;
21705;SDS011;11014;53.076;18.208;2022-12-18T09:00:44;39.40;;;15.95;;
21705;SDS011;11014;53.076;18.208;2022-12-18T09:03:44;43.63;;;16.67;;
21705;SDS011;11014;53.076;18.208;2022-12-18T09:07:15;40.50;;;16.98;;
21705;SDS011;11014;53.076;18.208;2022-12-18T09:10:25;30.13;;;13.02;;
21705;SDS011;11014;53.076;18.208;2022-12-18T09:18:22;35.55;;;17.67;;
21705;SDS011;11014;53.076;18.208;2022-12-18T09:21:56;34.47;;;13.82;;
21705;SDS011;11014;53.076;18.208;2022-12-18T09:24:48;36.28;;;16.88;;
21705;SDS011;11014;53.076;18.208;2022-12-18T09:27:28;30.90;;;11.50;;
21705;SDS011;11014;53.076;18.208;2022-12-18T09:30:01;46.65;;;18.67;;
21705;SDS011;11014;53.076;18.208;2022-12-18T09:32:34;49.42;;;18.40;;
21705;SDS011;11014;53.076;18.208;2022-12-18T09:35:15;45.47;;;17.73;;
21705;SDS011;11014;53.076;18.208;2022-12-18T09:37:46;44.95;;;16.58;;
21705;SDS011;11014;53.076;18.208;2022-12-18T09:40:18;43.65;;;17.13;;
21705;SDS011;11014;53.076;18.208;2022-12-18T09:42:52;43.72;;;18.02;;
21705;SDS011;11014;53.076;18.208;2022-12-18T09:45:27;42.83;;;17.73;;
21705;SDS011;11014;53.076;18.208;2022-12-18T09:47:55;50.38;;;18.50;;
21705;SDS011;11014;53.076;18.208;2022-12-18T09:53:28;41.55;;;17.73;;
21705;SDS011;11014;53.076;18.208;2022-12-18T09:56:03;48.88;;;20.92;;
21705;SDS011;11014;53.076;18.208;2022-12-18T09:58:35;44.60;;;20.13;;
21705;SDS011;11014;53.076;18.208;2022-12-18T10:01:18;43.25;;;18.10;;
21705;SDS011;11014;53.076;18.208;2022-12-18T10:04:00;38.08;;;15.95;;
21705;SDS011;11014;53.076;18.208;2022-12-18T10:18:16;47.38;;;19.80;;
21705;SDS011;11014;53.076;18.208;2022-12-18T10:20:50;53.17;;;20.05;;
21705;SDS011;11014;53.076;18.208;2022-12-18T10:26:18;45.78;;;18.70;;
21705;SDS011;11014;53.076;18.208;2022-12-18T10:28:48;42.10;;;16.75;;
21705;SDS011;11014;53.076;18.208;2022-12-18T10:31:30;40.15;;;15.05;;
21705;SDS011;11014;53.076;18.208;2022-12-18T10:33:59;44.58;;;17.33;;
21705;SDS011;11014;53.076;18.208;2022-12-18T10:36:30;45.17;;;19.27;;
21705;SDS011;11014;53.076;18.208;2022-12-18T10:39:18;49.53;;;20.75;;
21705;SDS011;11014;53.076;18.208;2022-12-18T10:41:50;54.15;;;19.95;;
21705;SDS011;11014;53.076;18.208;2022-12-18T10:44:20;50.65;;;21.50;;
21705;SDS011;11014;53.076;18.208;2022-12-18T10:46:52;44.03;;;17.63;;
21705;SDS011;11014;53.076;18.208;2022-12-18T10:49:32;52.90;;;21.50;;
21705;SDS011;11014;53.076;18.208;2022-12-18T10:54:45;45.00;;;19.00;;
21705;SDS011;11014;53.076;18.208;2022-12-18T10:59:55;67.30;;;21.48;;
21705;SDS011;11014;53.076;18.208;2022-12-18T11:05:27;48.83;;;17.67;;
21705;SDS011;11014;53.076;18.208;2022-12-18T11:12:48;53.60;;;20.65;;
21705;SDS011;11014;53.076;18.208;2022-12-18T11:15:29;54.28;;;21.20;;
21705;SDS011;11014;53.076;18.208;2022-12-18T11:17:58;59.13;;;21.45;;
21705;SDS011;11014;53.076;18.208;2022-12-18T11:20:34;57.10;;;21.92;;
21705;SDS011;11014;53.076;18.208;2022-12-18T11:23:10;56.20;;;21.42;;
21705;SDS011;11014;53.076;18.208;2022-12-18T11:25:40;59.60;;;22.60;;
21705;SDS011;11014;53.076;18.208;2022-12-18T11:28:36;60.38;;;21.63;;
21705;SDS011;11014;53.076;18.208;2022-12-18T11:31:22;61.70;;;22.55;;
21705;SDS011;11014;53.076;18.208;2022-12-18T11:36:57;44.85;;;15.65;;
21705;SDS011;11014;53.076;18.208;2022-12-18T11:39:38;70.53;;;26.25;;
21705;SDS011;11014;53.076;18.208;2022-12-18T11:42:17;70.38;;;26.33;;
21705;SDS011;11014;53.076;18.208;2022-12-18T11:47:44;74.40;;;26.20;;
21705;SDS011;11014;53.076;18.208;2022-12-18T11:50:24;56.88;;;22.17;;
21705;SDS011;11014;53.076;18.208;2022-12-18T11:56:05;59.03;;;24.52;;
21705;SDS011;11014;53.076;18.208;2022-12-18T11:59:15;64.47;;;23.73;;
21705;SDS011;11014;53.076;18.208;2022-12-18T12:02:11;58.13;;;23.77;;
21705;SDS011;11014;53.076;18.208;2022-12-18T12:07:34;57.05;;;22.17;;
21705;SDS011;11014;53.076;18.208;2022-12-18T12:13:22;46.83;;;17.65;;
21705;SDS011;11014;53.076;18.208;2022-12-18T12:16:07;57.35;;;22.67;;
21705;SDS011;11014;53.076;18.208;2022-12-18T12:21:42;61.05;;;22.77;;
21705;SDS011;11014;53.076;18.208;2022-12-18T12:30:21;62.83;;;24.88;;
21705;SDS011;11014;53.076;18.208;2022-12-18T12:33:12;60.17;;;22.23;;
21705;SDS011;11014;53.076;18.208;2022-12-18T12:35:52;55.08;;;22.27;;
21705;SDS011;11014;53.076;18.208;2022-12-18T12:38:33;62.63;;;21.52;;
21705;SDS011;11014;53.076;18.208;2022-12-18T12:41:19;58.17;;;20.98;;
21705;SDS011;11014;53.076;18.208;2022-12-18T12:44:19;57.35;;;21.55;;
21705;SDS011;11014;53.076;18.208;2022-12-18T12:46:55;50.15;;;18.00;;
21705;SDS011;11014;53.076;18.208;2022-12-18T12:49:31;60.30;;;23.92;;
21705;SDS011;11014;53.076;18.208;2022-12-18T12:55:05;53.50;;;22.85;;
21705;SDS011;11014;53.076;18.208;2022-12-18T12:58:02;62.75;;;23.52;;
21705;SDS011;11014;53.076;18.208;2022-12-18T13:00:48;57.28;;;21.08;;
21705;SDS011;11014;53.076;18.208;2022-12-18T13:06:33;64.53;;;29.38;;
21705;SDS011;11014;53.076;18.208;2022-12-18T13:09:26;59.83;;;22.25;;
21705;SDS011;11014;53.076;18.208;2022-12-18T13:12:02;59.42;;;24.27;;
21705;SDS011;11014;53.076;18.208;2022-12-18T13:14:52;59.25;;;24.33;;
21705;SDS011;11014;53.076;18.208;2022-12-18T13:19:51;63.85;;;23.02;;
21705;SDS011;11014;53.076;18.208;2022-12-18T13:22:41;59.83;;;22.95;;
21705;SDS011;11014;53.076;18.208;2022-12-18T13:25:34;58.80;;;23.45;;
21705;SDS011;11014;53.076;18.208;2022-12-18T13:28:07;64.55;;;24.98;;
21705;SDS011;11014;53.076;18.208;2022-12-18T13:30:57;68.70;;;22.58;;
21705;SDS011;11014;53.076;18.208;2022-12-18T13:36:12;60.45;;;23.35;;
21705;SDS011;11014;53.076;18.208;2022-12-18T13:38:44;69.47;;;25.30;;
21705;SDS011;11014;53.076;18.208;2022-12-18T13:41:24;63.22;;;22.67;;
21705;SDS011;11014;53.076;18.208;2022-12-18T13:44:10;66.68;;;23.58;;
21705;SDS011;11014;53.076;18.208;2022-12-18T13:46:59;64.45;;;24.80;;
21705;SDS011;11014;53.076;18.208;2022-12-18T13:49:36;62.83;;;23.65;;
21705;SDS011;11014;53.076;18.208;2022-12-18T13:52:23;70.22;;;27.05;;
21705;SDS011;11014;53.076;18.208;2022-12-18T13:54:55;63.95;;;25.90;;
21705;SDS011;11014;53.076;18.208;2022-12-18T13:57:38;70.13;;;24.95;;
21705;SDS011;11014;53.076;18.208;2022-12-18T14:00:23;48.70;;;18.77;;
21705;SDS011;11014;53.076;18.208;2022-12-18T14:02:57;65.93;;;23.40;;
21705;SDS011;11014;53.076;18.208;2022-12-18T14:05:30;70.18;;;25.42;;
21705;SDS011;11014;53.076;18.208;2022-12-18T14:08:02;46.47;;;16.23;;
21705;SDS011;11014;53.076;18.208;2022-12-18T14:10:39;65.63;;;27.15;;
21705;SDS011;11014;53.076;18.208;2022-12-18T14:16:05;85.70;;;34.05;;
21705;SDS011;11014;53.076;18.208;2022-12-18T14:21:32;70.40;;;26.92;;
21705;SDS011;11014;53.076;18.208;2022-12-18T14:24:11;73.95;;;25.83;;
21705;SDS011;11014;53.076;18.208;2022-12-18T14:26:43;75.50;;;27.10;;
21705;SDS011;11014;53.076;18.208;2022-12-18T14:29:28;86.60;;;25.73;;
21705;SDS011;11014;53.076;18.208;2022-12-18T14:32:06;79.10;;;26.35;;
21705;SDS011;11014;53.076;18.208;2022-12-18T14:34:53;71.88;;;24.48;;
21705;SDS011;11014;53.076;18.208;2022-12-18T14:37:23;70.55;;;25.75;;
21705;SDS011;11014;53.076;18.208;2022-12-18T14:39:54;91.15;;;27.38;;
21705;SDS011;11014;53.076;18.208;2022-12-18T14:42:31;85.22;;;27.58;;
21705;SDS011;11014;53.076;18.208;2022-12-18T14:48:15;124.70;;;28.55;;
21705;SDS011;11014;53.076;18.208;2022-12-18T14:50:55;71.25;;;25.23;;
21705;SDS011;11014;53.076;18.208;2022-12-18T14:53:36;75.93;;;25.85;;
21705;SDS011;11014;53.076;18.208;2022-12-18T14:56:18;91.32;;;27.98;;
21705;SDS011;11014;53.076;18.208;2022-12-18T14:58:51;74.38;;;26.50;;
21705;SDS011;11014;53.076;18.208;2022-12-18T15:01:33;73.60;;;27.58;;
21705;SDS011;11014;53.076;18.208;2022-12-18T15:04:23;84.10;;;29.25;;
21705;SDS011;11014;53.076;18.208;2022-12-18T15:07:08;79.53;;;26.63;;
21705;SDS011;11014;53.076;18.208;2022-12-18T15:10:03;80.57;;;28.08;;
21705;SDS011;11014;53.076;18.208;2022-12-18T15:20:39;86.22;;;28.55;;
21705;SDS011;11014;53.076;18.208;2022-12-18T15:26:18;73.53;;;25.67;;
21705;SDS011;11014;53.076;18.208;2022-12-18T15:28:54;75.05;;;27.77;;
21705;SDS011;11014;53.076;18.208;2022-12-18T15:34:12;82.88;;;27.33;;
21705;SDS011;11014;53.076;18.208;2022-12-18T15:36:50;91.20;;;28.75;;
21705;SDS011;11014;53.076;18.208;2022-12-18T15:39:19;88.60;;;30.08;;
21705;SDS011;11014;53.076;18.208;2022-12-18T15:41:50;89.07;;;29.17;;
21705;SDS011;11014;53.076;18.208;2022-12-18T15:44:37;87.00;;;29.48;;
21705;SDS011;11014;53.076;18.208;2022-12-18T15:47:09;88.10;;;31.85;;
21705;SDS011;11014;53.076;18.208;2022-12-18T15:49:44;81.95;;;28.00;;
21705;SDS011;11014;53.076;18.208;2022-12-18T15:52:15;85.57;;;30.63;;
21705;SDS011;11014;53.076;18.208;2022-12-18T15:54:54;82.60;;;28.35;;
21705;SDS011;11014;53.076;18.208;2022-12-18T15:57:41;89.57;;;30.13;;
21705;SDS011;11014;53.076;18.208;2022-12-18T16:00:11;82.53;;;28.65;;
21705;SDS011;11014;53.076;18.208;2022-12-18T16:02:40;86.07;;;29.85;;
21705;SDS011;11014;53.076;18.208;2022-12-18T16:05:13;81.55;;;29.95;;
21705;SDS011;11014;53.076;18.208;2022-12-18T16:07:48;82.32;;;31.38;;
21705;SDS011;11014;53.076;18.208;2022-12-18T16:13:14;89.85;;;31.15;;
21705;SDS011;11014;53.076;18.208;2022-12-18T16:15:49;81.78;;;27.75;;
21705;SDS011;11014;53.076;18.208;2022-12-18T16:18:27;88.18;;;29.17;;
21705;SDS011;11014;53.076;18.208;2022-12-18T16:21:01;107.32;;;32.38;;
21705;SDS011;11014;53.076;18.208;2022-12-18T16:23:30;107.25;;;34.92;;
21705;SDS011;11014;53.076;18.208;2022-12-18T16:26:01;102.25;;;34.90;;
21705;SDS011;11014;53.076;18.208;2022-12-18T16:28:30;106.15;;;36.53;;
21705;SDS011;11014;53.076;18.208;2022-12-18T16:31:00;109.28;;;34.90;;
21705;SDS011;11014;53.076;18.208;2022-12-18T16:33:29;116.63;;;36.47;;
21705;SDS011;11014;53.076;18.208;2022-12-18T16:35:57;117.63;;;37.75;;
21705;SDS011;11014;53.076;18.208;2022-12-18T16:38:30;137.75;;;40.97;;
21705;SDS011;11014;53.076;18.208;2022-12-18T16:41:02;128.63;;;40.65;;
21705;SDS011;11014;53.076;18.208;2022-12-18T16:43:59;111.65;;;35.78;;
21705;SDS011;11014;53.076;18.208;2022-12-18T16:46:30;117.75;;;36.08;;
21705;SDS011;11014;53.076;18.208;2022-12-18T16:51:31;108.28;;;33.10;;
21705;SDS011;11014;53.076;18.208;2022-12-18T16:54:02;100.93;;;32.50;;
21705;SDS011;11014;53.076;18.208;2022-12-18T16:56:37;90.38;;;29.15;;
21705;SDS011;11014;53.076;18.208;2022-12-18T16:59:06;95.10;;;30.40;;
21705;SDS011;11014;53.076;18.208;2022-12-18T17:01:39;93.03;;;32.50;;
21705;SDS011;11014;53.076;18.208;2022-12-18T17:04:09;85.47;;;29.63;;
21705;SDS011;11014;53.076;18.208;2022-12-18T17:06:43;101.05;;;35.47;;
21705;SDS011;11014;53.076;18.208;2022-12-18T17:11:43;95.32;;;32.65;;
21705;SDS011;11014;53.076;18.208;2022-12-18T17:14:18;105.50;;;36.63;;
21705;SDS011;11014;53.076;18.208;2022-12-18T17:16:51;86.85;;;30.75;;
21705;SDS011;11014;53.076;18.208;2022-12-18T17:19:42;92.95;;;30.08;;
21705;SDS011;11014;53.076;18.208;2022-12-18T17:22:11;98.30;;;32.45;;
21705;SDS011;11014;53.076;18.208;2022-12-18T17:24:42;98.90;;;33.07;;
21705;SDS011;11014;53.076;18.208;2022-12-18T17:27:11;107.60;;;33.85;;
21705;SDS011;11014;53.076;18.208;2022-12-18T17:29:40;108.72;;;33.67;;
21705;SDS011;11014;53.076;18.208;2022-12-18T17:32:15;106.13;;;36.17;;
21705;SDS011;11014;53.076;18.208;2022-12-18T17:34:44;106.53;;;34.60;;